Time,TemperatureF,DewpointF,PressureIn,WindDirection,WindDirectionDegrees,WindSpeedMPH,WindSpeedGustMPH,Humidity,HourlyPrecipIn,Conditions,Clouds,dailyrainin,SoftwareType,DateUTC
2013-06-12 00:02:00,48.0,44.0,-100.00,North,8,3.0,4.0,86,0.00,,,-99.99,,2013-06-12 06:02:00,
2013-06-12 00:12:00,49.0,44.0,-100.00,NW,322,3.0,5.0,82,0.00,,,-99.99,,2013-06-12 06:12:00,
2013-06-12 00:22:00,48.0,44.0,-100.00,NNW,344,4.0,5.0,85,0.00,,,-99.99,,2013-06-12 06:22:00,
2013-06-12 00:32:00,48.0,44.0,-100.00,NNW,344,4.0,5.0,85,0.00,,,-99.99,,2013-06-12 06:32:00,
2013-06-12 00:42:00,48.0,44.0,-100.00,NW,325,4.0,5.0,84,0.00,,,-99.99,,2013-06-12 06:42:00,
2013-06-12 00:52:00,48.0,42.0,-100.00,WNW,288,4.0,5.0,80,0.00,,,-99.99,,2013-06-12 06:52:00,
2013-06-12 01:02:00,48.0,42.0,-100.00,WNW,288,4.0,5.0,80,0.00,,,0.09,,2013-06-12 07:02:00,
2013-06-12 01:12:00,48.0,42.0,-100.00,WNW,288,4.0,5.0,80,0.00,,,0.09,,2013-06-12 07:12:00,
2013-06-12 01:22:00,48.0,42.0,-100.00,WNW,288,4.0,5.0,80,0.00,,,0.09,,2013-06-12 07:22:00,
2013-06-12 01:33:00,47.0,42.0,-100.00,NW,308,5.0,6.0,82,0.00,,,0.09,,2013-06-12 07:33:00,
2013-06-12 01:43:00,47.0,42.0,-100.00,NW,320,7.0,8.0,81,0.00,,,0.09,,2013-06-12 07:43:00,
2013-06-12 01:53:00,47.0,42.0,-100.00,NW,320,7.0,8.0,81,0.00,,,0.09,,2013-06-12 07:53:00,
2013-06-12 02:02:00,47.0,42.0,-100.00,NW,320,7.0,8.0,81,0.00,,,0.09,,2013-06-12 08:02:00,
2013-06-12 02:12:00,47.0,42.0,-100.00,NW,320,7.0,8.0,81,0.00,,,0.09,,2013-06-12 08:12:00,
2013-06-12 02:43:00,45.0,42.0,-100.00,NW,323,3.0,4.0,91,0.00,,,0.09,,2013-06-12 08:43:00,
2013-06-12 02:53:00,45.0,42.0,-100.00,NW,323,3.0,4.0,91,0.00,,,0.09,,2013-06-12 08:53:00,
2013-06-12 03:01:00,45.0,42.0,-100.00,ESE,103,2.0,3.0,91,0.00,,,0.09,,2013-06-12 09:01:00,
2013-06-12 03:11:00,45.0,42.0,-100.00,ESE,103,2.0,3.0,91,0.00,,,0.09,,2013-06-12 09:11:00,
2013-06-12 03:22:00,45.0,42.0,-100.00,ESE,103,2.0,3.0,91,0.00,,,0.09,,2013-06-12 09:22:00,
2013-06-12 03:30:00,46.0,45.0,-100.00,SSW,213,3.0,4.0,95,0.00,,,0.09,,2013-06-12 09:30:00,
2013-06-12 03:33:00,45.0,43.0,-100.00,WSW,239,2.0,2.0,91,0.00,,,0.09,,2013-06-12 09:33:00,
2013-06-12 03:42:00,47.0,45.0,-100.00,North,356,1.0,3.0,91,0.00,,,0.09,,2013-06-12 09:42:00,
2013-06-12 03:53:00,47.0,45.0,-100.00,North,356,1.0,3.0,91,0.00,,,0.09,,2013-06-12 09:53:00,
2013-06-12 04:01:00,46.0,45.0,-100.00,SSW,213,3.0,4.0,95,0.00,,,0.09,,2013-06-12 10:01:00,
2013-06-12 04:11:00,46.0,45.0,-100.00,SSW,213,3.0,4.0,95,0.00,,,0.09,,2013-06-12 10:11:00,
2013-06-12 04:23:00,46.0,45.0,-100.00,SSW,213,3.0,4.0,95,0.00,,,0.09,,2013-06-12 10:23:00,
2013-06-12 04:43:00,46.0,45.0,-100.00,WSW,243,1.0,2.0,95,0.00,,,0.09,,2013-06-12 10:43:00,
2013-06-12 04:53:00,46.0,45.0,-100.00,ESE,106,2.0,4.0,95,0.00,,,0.09,,2013-06-12 10:53:00,
2013-06-12 05:02:00,46.0,45.0,-100.00,ESE,106,2.0,4.0,95,0.00,,,0.09,,2013-06-12 11:02:00,
2013-06-12 05:12:00,46.0,45.0,-100.00,NNE,23,2.0,5.0,95,0.00,,,0.09,,2013-06-12 11:12:00,
2013-06-12 05:24:00,46.0,45.0,-100.00,NNE,23,2.0,5.0,95,0.00,,,0.09,,2013-06-12 11:24:00,
2013-06-12 05:33:00,47.0,45.0,-100.00,SSE,151,4.0,7.0,93,0.00,,,0.09,,2013-06-12 11:33:00,
2013-06-12 05:43:00,47.0,45.0,-100.00,SE,143,6.0,8.0,92,0.00,,,0.09,,2013-06-12 11:43:00,
2013-06-12 05:53:00,47.0,45.0,-100.00,SE,143,6.0,8.0,92,0.00,,,0.09,,2013-06-12 11:53:00,
2013-06-12 06:01:00,47.0,45.0,-100.00,SSE,147,5.0,9.0,92,0.00,,,0.09,,2013-06-12 12:01:00,
2013-06-12 06:11:00,47.0,45.0,-100.00,SSW,203,2.0,7.0,93,0.00,,,0.09,,2013-06-12 12:11:00,
2013-06-12 06:23:00,47.0,45.0,-100.00,SSW,203,2.0,7.0,93,0.00,,,0.09,,2013-06-12 12:23:00,
2013-06-12 06:33:00,47.0,45.0,-100.00,SSW,203,2.0,7.0,93,0.00,,,0.09,,2013-06-12 12:33:00,
2013-06-12 06:42:00,46.0,45.0,-100.00,SSE,162,4.0,9.0,95,0.00,,,0.09,,2013-06-12 12:42:00,
2013-06-12 06:53:00,46.0,45.0,-100.00,SSE,162,4.0,9.0,95,0.00,,,0.09,,2013-06-12 12:53:00,
2013-06-12 07:01:00,46.0,45.0,-100.00,South,176,3.0,5.0,95,0.00,,,0.09,,2013-06-12 13:01:00,
2013-06-12 07:11:00,46.0,45.0,-100.00,South,176,3.0,5.0,95,0.00,,,0.09,,2013-06-12 13:11:00,
2013-06-12 07:22:00,47.0,45.0,-100.00,SSW,196,2.0,5.0,94,0.00,,,0.09,,2013-06-12 13:22:00,
2013-06-12 07:30:00,49.0,46.0,-100.00,ESE,120,4.0,8.0,89,0.00,,,0.09,,2013-06-12 13:30:00,
2013-06-12 07:32:00,47.0,45.0,-100.00,South,181,3.0,7.0,93,0.00,,,0.09,,2013-06-12 13:32:00,
2013-06-12 07:43:00,47.0,45.0,-100.00,South,181,3.0,7.0,93,0.00,,,0.09,,2013-06-12 13:43:00,
2013-06-12 07:53:00,47.0,45.0,-100.00,South,181,3.0,7.0,93,0.00,,,0.09,,2013-06-12 13:53:00,
2013-06-12 08:01:00,49.0,46.0,-100.00,ESE,120,4.0,8.0,89,0.00,,,0.09,,2013-06-12 14:01:00,
2013-06-12 08:11:00,49.0,46.0,-100.00,ESE,120,4.0,8.0,89,0.00,,,0.09,,2013-06-12 14:11:00,
2013-06-12 08:23:00,49.0,46.0,-100.00,ESE,120,4.0,8.0,89,0.00,,,0.09,,2013-06-12 14:23:00,
2013-06-12 09:01:00,51.0,46.0,-100.00,NW,323,3.0,4.0,83,0.00,,,0.09,,2013-06-12 15:01:00,
2013-06-12 09:12:00,51.0,46.0,-100.00,NW,323,3.0,4.0,83,0.00,,,0.09,,2013-06-12 15:12:00,
2013-06-12 09:23:00,51.0,46.0,-100.00,NW,323,3.0,4.0,83,0.00,,,0.09,,2013-06-12 15:23:00,
2013-06-12 09:32:00,51.0,46.0,-100.00,NW,326,3.0,4.0,81,0.00,,,0.09,,2013-06-12 15:32:00,
2013-06-12 09:43:00,53.0,45.0,-100.00,NNW,328,6.0,8.0,74,0.00,,,0.09,,2013-06-12 15:43:00,
2013-06-12 09:52:00,53.0,45.0,-100.00,NNW,328,6.0,8.0,74,0.00,,,0.09,,2013-06-12 15:52:00,
2013-06-12 10:01:00,53.0,45.0,-100.00,NNW,328,6.0,8.0,74,0.00,,,0.09,,2013-06-12 16:01:00,
2013-06-12 10:11:00,53.0,45.0,-100.00,NNW,329,7.0,9.0,73,0.00,,,0.09,,2013-06-12 16:11:00,
2013-06-12 10:21:00,53.0,45.0,-100.00,NNW,329,7.0,9.0,73,0.00,,,0.09,,2013-06-12 16:21:00,
2013-06-12 10:32:00,53.0,45.0,-100.00,NNW,329,7.0,9.0,73,0.00,,,0.09,,2013-06-12 16:32:00,
2013-06-12 10:43:00,55.0,45.0,-100.00,NW,322,6.0,8.0,68,0.00,,,0.09,,2013-06-12 16:43:00,
2013-06-12 10:52:00,54.0,45.0,-100.00,NNW,329,7.0,10.0,70,0.00,,,0.09,,2013-06-12 16:52:00,
2013-06-12 11:01:00,54.0,45.0,-100.00,NNW,329,7.0,10.0,70,0.00,,,0.09,,2013-06-12 17:01:00,
2013-06-12 11:11:00,56.0,45.0,-100.00,NW,320,9.0,11.0,66,0.00,,,0.09,,2013-06-12 17:11:00,
2013-06-12 11:22:00,56.0,45.0,-100.00,NW,320,9.0,11.0,66,0.00,,,0.09,,2013-06-12 17:22:00,
2013-06-12 11:33:00,56.0,45.0,-100.00,NW,320,9.0,11.0,66,0.00,,,0.09,,2013-06-12 17:33:00,
2013-06-12 11:42:00,56.0,45.0,-100.00,NW,326,11.0,13.0,67,0.00,,,0.09,,2013-06-12 17:42:00,
2013-06-12 11:52:00,57.0,46.0,-100.00,NW,325,9.0,12.0,66,0.00,,,0.09,,2013-06-12 17:52:00,
2013-06-12 12:00:00,56.0,46.0,-100.00,NNW,335,15.0,18.0,68,0.00,,,0.09,,2013-06-12 18:00:00,
2013-06-12 12:02:00,57.0,46.0,-100.00,NW,325,9.0,12.0,66,0.00,,,0.09,,2013-06-12 18:02:00,
2013-06-12 12:12:00,57.0,46.0,-100.00,NW,325,9.0,12.0,66,0.00,,,0.09,,2013-06-12 18:12:00,
2013-06-12 12:32:00,56.0,46.0,-100.00,NW,316,12.0,15.0,69,0.00,,,0.09,,2013-06-12 18:32:00,
2013-06-12 12:43:00,56.0,46.0,-100.00,NNW,335,15.0,18.0,68,0.00,,,0.09,,2013-06-12 18:43:00,
2013-06-12 12:53:00,56.0,46.0,-100.00,NNW,335,15.0,18.0,68,0.00,,,0.09,,2013-06-12 18:53:00,
2013-06-12 13:22:00,58.0,47.0,-100.00,NW,316,10.0,15.0,67,0.00,,,0.05,,2013-06-12 19:22:00,
2013-06-12 13:32:00,58.0,46.0,-100.00,NW,325,13.0,18.0,65,0.00,,,0.04,,2013-06-12 19:32:00,
2013-06-12 13:42:00,57.0,47.0,-100.00,NW,323,11.0,14.0,68,0.00,,,0.04,,2013-06-12 19:42:00,
2013-06-12 13:52:00,57.0,47.0,-100.00,NW,323,11.0,14.0,68,0.00,,,0.04,,2013-06-12 19:52:00,
2013-06-12 14:01:00,57.0,46.0,-100.00,NW,325,14.0,17.0,68,0.00,,,0.04,,2013-06-12 20:01:00,
2013-06-12 14:11:00,57.0,46.0,-100.00,NW,325,14.0,17.0,68,0.00,,,0.04,,2013-06-12 20:11:00,
2013-06-12 14:21:00,57.0,46.0,-100.00,NW,325,14.0,17.0,68,0.00,,,0.04,,2013-06-12 20:21:00,
2013-06-12 14:43:00,57.0,46.0,-100.00,NW,320,13.0,16.0,65,0.00,,,0.03,,2013-06-12 20:43:00,
2013-06-12 15:01:00,57.0,46.0,-100.00,NW,320,13.0,16.0,65,0.00,,,0.03,,2013-06-12 21:01:00,
2013-06-12 15:53:00,60.0,45.0,-100.00,NNW,328,15.0,18.0,58,0.00,,,0.02,,2013-06-12 21:53:00,
2013-06-12 16:22:00,60.0,45.0,-100.00,NNW,328,15.0,18.0,58,0.00,,,0.02,,2013-06-12 22:22:00,
2013-06-12 16:32:00,60.0,46.0,-100.00,NW,323,11.0,15.0,58,0.00,,,0.02,,2013-06-12 22:32:00,
2013-06-12 16:43:00,60.0,46.0,-100.00,NW,320,16.0,20.0,59,0.00,,,0.02,,2013-06-12 22:43:00,
2013-06-12 16:52:00,60.0,46.0,-100.00,NW,320,16.0,20.0,59,0.00,,,0.02,,2013-06-12 22:52:00,
2013-06-12 17:01:00,60.0,46.0,-100.00,NW,320,13.0,19.0,60,0.00,,,0.02,,2013-06-12 23:01:00,
2013-06-12 17:42:00,63.0,46.0,-100.00,NW,315,12.0,15.0,55,0.00,,,0.01,,2013-06-12 23:42:00,
2013-06-12 18:52:00,60.0,45.0,-100.00,NW,313,11.0,17.0,57,0.00,,,0.00,,2013-06-13 00:52:00,
2013-06-12 21:11:00,56.0,43.0,-100.00,NW,322,11.0,16.0,62,0.00,,,0.00,,2013-06-13 03:11:00,
2013-06-12 21:22:00,55.0,43.0,-100.00,NW,325,8.0,12.0,64,0.00,,,0.00,,2013-06-13 03:22:00,
2013-06-12 21:30:00,53.0,43.0,-100.00,NW,325,9.0,14.0,69,0.00,,,0.00,,2013-06-13 03:30:00,
2013-06-12 21:33:00,55.0,43.0,-100.00,NW,325,8.0,12.0,64,0.00,,,0.00,,2013-06-13 03:33:00,
2013-06-12 21:43:00,55.0,43.0,-100.00,NW,325,8.0,12.0,64,0.00,,,0.00,,2013-06-13 03:43:00,
2013-06-12 21:52:00,54.0,44.0,-100.00,NW,323,11.0,15.0,68,0.00,,,0.00,,2013-06-13 03:52:00,
2013-06-12 22:01:00,54.0,44.0,-100.00,NW,323,11.0,15.0,68,0.00,,,0.00,,2013-06-13 04:01:00,
2013-06-12 22:11:00,53.0,43.0,-100.00,NW,325,9.0,14.0,69,0.00,,,0.00,,2013-06-13 04:11:00,
2013-06-12 22:22:00,53.0,43.0,-100.00,NW,325,9.0,14.0,69,0.00,,,0.00,,2013-06-13 04:22:00,
2013-06-12 22:43:00,52.0,43.0,-100.00,NNW,329,9.0,12.0,72,0.00,,,0.00,,2013-06-13 04:43:00,
2013-06-12 22:53:00,51.0,43.0,-100.00,NNW,336,8.0,11.0,75,0.00,,,0.00,,2013-06-13 04:53:00,
2013-06-12 23:02:00,51.0,43.0,-100.00,NNW,336,8.0,11.0,75,0.00,,,0.00,,2013-06-13 05:02:00,
2013-06-12 23:11:00,51.0,43.0,-100.00,NNW,336,8.0,11.0,75,0.00,,,0.00,,2013-06-13 05:11:00,
2013-06-12 23:23:00,51.0,43.0,-100.00,NNW,336,8.0,11.0,75,0.00,,,0.00,,2013-06-13 05:23:00,
2013-06-12 23:32:00,48.0,46.0,-100.00,SSW,205,2.0,3.0,94,0.01,,,0.02,,2013-06-13 05:32:00,
2013-06-12 23:43:00,48.0,46.0,-100.00,NNW,332,3.0,4.0,95,0.00,,,0.02,,2013-06-13 05:43:00,
2013-06-12 23:53:00,48.0,46.0,-100.00,NNW,332,3.0,4.0,95,0.00,,,0.02,,2013-06-13 05:53:00,